createdAt,value
2018-09-06T00:01:44.897Z,97838.92
2018-09-06T00:04:13.607Z,97843.92
2018-09-06T00:06:42.406Z,97839.39
2018-09-06T00:09:11.211Z,97836.10
2018-09-06T00:11:39.954Z,97840.19
2018-09-06T00:14:08.806Z,97834.86
2018-09-06T00:16:37.464Z,97836.09
2018-09-06T00:19:06.657Z,97837.80
2018-09-06T00:21:35.458Z,97835.20
2018-09-06T00:24:04.203Z,97832.36
2018-09-06T00:26:32.859Z,97831.20
2018-09-06T00:29:01.555Z,97835.76
2018-09-06T00:31:30.685Z,97831.77
2018-09-06T00:33:59.547Z,97825.30
2018-09-06T00:36:28.190Z,97828.36
2018-09-06T00:38:57.186Z,97822.24
2018-09-06T00:41:25.835Z,97821.45
2018-09-06T00:43:54.509Z,97818.69
2018-09-06T00:46:23.220Z,97821.27
2018-09-06T00:48:52.025Z,97812.31
2018-09-06T00:51:21.125Z,97813.67
2018-09-06T00:53:49.966Z,97811.52
2018-09-06T00:56:18.650Z,97811.40
2018-09-06T00:58:47.413Z,97815.12
2018-09-06T01:01:16.073Z,97811.17
2018-09-06T01:03:44.839Z,97811.86
2018-09-06T01:06:13.486Z,97806.28
2018-09-06T01:08:42.229Z,97805.37
2018-09-06T01:11:11.085Z,97809.80
2018-09-06T01:13:39.765Z,97806.05
2018-09-06T01:16:09.341Z,97804.92
2018-09-06T01:18:38.181Z,97806.17
2018-09-06T01:21:07.465Z,97797.55
2018-09-06T01:23:36.210Z,97802.98
2018-09-06T01:26:04.937Z,97800.27
2018-09-06T01:28:33.641Z,97799.70
2018-09-06T01:31:02.418Z,97801.62
2018-09-06T01:33:31.194Z,97800.00
2018-09-06T01:36:04.989Z,97802.28
2018-09-06T01:38:33.736Z,97801.70
2018-09-06T01:41:02.482Z,97804.89
2018-09-06T01:43:31.152Z,97799.08
2018-09-06T01:46:00.034Z,97797.27
2018-09-06T01:48:28.786Z,97799.08
2018-09-06T01:50:57.901Z,97795.00
2018-09-06T01:53:26.629Z,97787.98
2018-09-06T01:55:55.269Z,97798.72
2018-09-06T01:58:23.945Z,97791.58
2018-09-06T02:00:52.590Z,97786.26
2018-09-06T02:03:21.620Z,97787.14
2018-09-06T02:05:50.294Z,97791.33
2018-09-06T02:08:19.019Z,97785.89
2018-09-06T02:10:47.769Z,97795.52
2018-09-06T02:13:16.540Z,97792.02
2018-09-06T02:15:45.305Z,97794.25
2018-09-06T02:18:14.101Z,97793.00
2018-09-06T02:20:42.754Z,97788.13
2018-09-06T02:23:11.444Z,97788.13
2018-09-06T02:25:40.235Z,97788.36
2018-09-06T02:28:09.422Z,97780.42
2018-09-06T02:30:38.260Z,97786.77
2018-09-06T02:33:06.989Z,97783.59
2018-09-06T02:35:35.810Z,97787.00
2018-09-06T02:38:04.481Z,97779.97
2018-09-06T02:40:40.109Z,97781.33
2018-09-06T02:43:11.250Z,97780.65
2018-09-06T02:45:40.972Z,97778.41
2018-09-06T02:48:09.712Z,97780.99
2018-09-06T02:50:43.861Z,97773.17
2018-09-06T02:53:12.894Z,97778.39
2018-09-06T02:55:41.997Z,97769.30
2018-09-06T02:58:10.738Z,97767.71
2018-09-06T03:00:39.897Z,97767.03
2018-09-06T03:03:08.833Z,97761.59
2018-09-06T03:05:37.552Z,97768.39
2018-09-06T03:08:06.271Z,97760.09
2018-09-06T03:10:43.070Z,97752.96
2018-09-06T03:13:11.853Z,97757.03
2018-09-06T03:15:41.224Z,97749.30
2018-09-06T03:18:10.204Z,97753.61
2018-09-06T03:20:39.051Z,97752.70
2018-09-06T03:23:07.785Z,97751.77
2018-09-06T03:25:36.499Z,97756.75
2018-09-06T03:28:06.119Z,97758.11
2018-09-06T03:30:35.043Z,97749.92
2018-09-06T03:33:04.112Z,97743.77
2018-09-06T03:35:32.805Z,97744.42
2018-09-06T03:38:01.708Z,97735.59
2018-09-06T03:40:30.700Z,97732.61
2018-09-06T03:42:59.365Z,97738.61
2018-09-06T03:45:28.106Z,97738.27
2018-09-06T03:47:56.869Z,97736.00
2018-09-06T03:50:25.563Z,97734.16
2018-09-06T03:52:54.358Z,97730.09
2018-09-06T03:55:23.765Z,97729.17
2018-09-06T03:57:52.579Z,97733.89
2018-09-06T04:00:21.463Z,97727.55
2018-09-06T04:02:50.269Z,97740.52
2018-09-06T04:05:19.330Z,97739.27
2018-09-06T04:07:48.066Z,97739.73
2018-09-06T04:10:16.803Z,97737.24
2018-09-06T04:12:45.789Z,97738.75
2018-09-06T04:15:14.579Z,97738.03
2018-09-06T04:17:43.470Z,97742.22
2018-09-06T04:20:12.126Z,97738.14
2018-09-06T04:22:45.567Z,97736.78
2018-09-06T04:25:14.433Z,97737.35
2018-09-06T04:27:43.275Z,97736.10
2018-09-06T04:30:12.212Z,97740.70
2018-09-06T04:32:40.945Z,97732.90
2018-09-06T04:35:10.009Z,97734.17
2018-09-06T04:37:38.754Z,97737.87
2018-09-06T04:40:07.861Z,97733.23
2018-09-06T04:42:36.770Z,97732.44
2018-09-06T04:45:05.960Z,97733.34
2018-09-06T04:47:34.662Z,97727.02
2018-09-06T04:50:03.434Z,97728.94
2018-09-06T04:52:32.182Z,97732.22
2018-09-06T04:55:00.918Z,97735.91
2018-09-06T04:57:29.562Z,97742.23
2018-09-06T04:59:58.301Z,97733.75
2018-09-06T05:02:26.926Z,97740.55
2018-09-06T05:04:55.679Z,97740.13
2018-09-06T05:07:24.562Z,97744.84
2018-09-06T05:09:53.260Z,97747.71
2018-09-06T05:12:22.018Z,97742.63
2018-09-06T05:14:50.846Z,97741.98
2018-09-06T05:17:19.495Z,97738.37
2018-09-06T05:19:48.229Z,97740.52
2018-09-06T05:22:16.924Z,97738.41
2018-09-06T05:24:45.881Z,97734.38
2018-09-06T05:27:14.729Z,97734.04
2018-09-06T05:29:43.421Z,97738.46
2018-09-06T05:32:12.449Z,97735.29
2018-09-06T05:34:41.281Z,97731.25
2018-09-06T05:37:10.059Z,97738.63
2018-09-06T05:39:38.842Z,97736.08
2018-09-06T05:42:07.501Z,97739.77
2018-09-06T05:44:36.431Z,97737.21
2018-09-06T05:47:05.188Z,97740.64
2018-09-06T05:49:34.014Z,97735.58
2018-09-06T05:52:02.834Z,97733.45
2018-09-06T05:54:31.746Z,97729.94
2018-09-06T05:57:00.968Z,97732.77
2018-09-06T05:59:29.640Z,97736.56
2018-09-06T06:01:58.329Z,97730.02
2018-09-06T06:04:27.013Z,97725.62
2018-09-06T06:06:55.814Z,97719.86
2018-09-06T06:09:24.614Z,97714.33
2018-09-06T06:11:53.747Z,97718.17
2018-09-06T06:14:22.587Z,97716.38
2018-09-06T06:16:52.380Z,97721.14
2018-09-06T06:19:21.155Z,97710.27
2018-09-06T06:21:50.085Z,97719.11
2018-09-06T06:24:18.790Z,97715.95
2018-09-06T06:26:47.847Z,97715.03
2018-09-06T06:29:16.622Z,97722.19
2018-09-06T06:31:45.690Z,97718.10
2018-09-06T06:34:14.515Z,97727.29
2018-09-06T06:36:43.385Z,97721.84
2018-09-06T06:39:13.654Z,97723.29
2018-09-06T06:41:42.428Z,97721.57
2018-09-06T06:44:11.729Z,97719.72
2018-09-06T06:46:40.473Z,97716.05
2018-09-06T06:49:09.136Z,97713.19
2018-09-06T06:51:37.760Z,97710.69
2018-09-06T06:54:06.741Z,97709.42
2018-09-06T06:56:35.639Z,97717.13
2018-09-06T06:59:04.722Z,97715.75
2018-09-06T07:01:33.442Z,97714.00
2018-09-06T07:04:02.415Z,97720.52
2018-09-06T07:06:31.149Z,97713.81
2018-09-06T07:09:00.007Z,97717.16
2018-09-06T07:11:28.929Z,97723.33
2018-09-06T07:13:57.805Z,97714.90
2018-09-06T07:16:26.509Z,97720.02
2018-09-06T07:18:55.506Z,97721.53
2018-09-06T07:21:24.305Z,97726.02
2018-09-06T07:23:53.191Z,97716.47
2018-09-06T07:26:21.938Z,97719.44
2018-09-06T07:28:50.714Z,97716.16
2018-09-06T07:31:19.640Z,97711.88
2018-09-06T07:33:48.424Z,97700.37
2018-09-06T07:36:17.125Z,97694.91
2018-09-06T07:38:45.825Z,97699.67
2018-09-06T07:41:14.499Z,97696.53
2018-09-06T07:43:43.175Z,97701.05
2018-09-06T07:46:11.875Z,97702.13
2018-09-06T07:48:41.065Z,97697.05
2018-09-06T07:51:09.817Z,97697.53
2018-09-06T07:53:38.755Z,97692.39
2018-09-06T07:56:07.937Z,97700.36
2018-09-06T07:58:36.742Z,97692.39
2018-09-06T08:01:05.690Z,97694.48
2018-09-06T08:03:34.445Z,97687.75
2018-09-06T08:06:03.401Z,97679.70
2018-09-06T08:08:32.324Z,97687.28
2018-09-06T08:11:01.064Z,97685.39
2018-09-06T08:13:30.613Z,97686.32
2018-09-06T08:15:59.355Z,97687.52
2018-09-06T08:18:28.045Z,97681.91
2018-09-06T08:20:56.773Z,97686.61
2018-09-06T08:23:25.570Z,97676.17
2018-09-06T08:25:54.546Z,97684.61
2018-09-06T08:28:23.273Z,97684.11
2018-09-06T08:30:52.079Z,97688.69
2018-09-06T08:33:20.856Z,97677.01
2018-09-06T08:35:49.573Z,97677.30
2018-09-06T08:38:18.393Z,97673.58
2018-09-06T08:40:47.137Z,97674.83
2018-09-06T08:43:15.897Z,97684.88
2018-09-06T08:45:44.744Z,97675.68
2018-09-06T08:48:13.643Z,97681.17
2018-09-06T08:50:42.537Z,97673.38
2018-09-06T08:53:11.268Z,97678.87
2018-09-06T08:55:39.999Z,97666.78
2018-09-06T08:58:08.831Z,97674.78
2018-09-06T09:00:40.937Z,97672.28
2018-09-06T09:03:10.999Z,97669.13
2018-09-06T09:05:39.742Z,97666.45
2018-09-06T09:08:08.438Z,97662.36
2018-09-06T09:10:37.242Z,97659.28
2018-09-06T09:13:06.292Z,97650.44
2018-09-06T09:15:35.051Z,97652.59
2018-09-06T09:18:03.784Z,97646.25
2018-09-06T09:20:32.685Z,97649.45
2018-09-06T09:23:01.606Z,97649.06
2018-09-06T09:25:30.409Z,97639.28
2018-09-06T09:27:59.278Z,97634.25
2018-09-06T09:30:28.192Z,97625.42
2018-09-06T09:32:57.275Z,97628.19
2018-09-06T09:35:26.095Z,97632.33
2018-09-06T09:37:54.886Z,97637.05
2018-09-06T09:40:23.633Z,97632.53
2018-09-06T09:42:52.330Z,97629.00
2018-09-06T09:45:21.220Z,97630.75
2018-09-06T09:47:49.999Z,97632.31
2018-09-06T09:52:46.785Z,97631.50
2018-09-06T09:55:15.465Z,97625.03
2018-09-06T09:57:44.314Z,97617.16
2018-09-06T10:00:13.050Z,97619.14
2018-09-06T10:02:46.933Z,97619.53
2018-09-06T10:05:20.782Z,97603.83
2018-09-06T10:07:57.926Z,97605.19
2018-09-06T10:10:27.421Z,97596.30
2018-09-06T10:12:56.221Z,97603.36
2018-09-06T10:15:25.002Z,97591.53
2018-09-06T10:18:00.598Z,97599.03
2018-09-06T10:20:29.729Z,97596.09
2018-09-06T10:22:58.500Z,97583.70
2018-09-06T10:25:27.395Z,97584.67
2018-09-06T10:27:56.202Z,97586.02
2018-09-06T10:30:25.129Z,97589.13
2018-09-06T10:32:53.957Z,97584.23
2018-09-06T10:35:22.812Z,97579.67
2018-09-06T10:37:51.495Z,97573.50
2018-09-06T10:40:20.210Z,97572.84
2018-09-06T10:42:49.006Z,97565.31
2018-09-06T10:45:17.736Z,97567.06
2018-09-06T10:47:46.514Z,97568.52
2018-09-06T10:50:15.318Z,97567.10
2018-09-06T10:52:44.250Z,97573.00
2018-09-06T10:55:13.110Z,97556.77
2018-09-06T10:57:41.814Z,97554.23
2018-09-06T11:00:10.663Z,97551.29
2018-09-06T11:02:39.506Z,97555.34
2018-09-06T11:05:08.378Z,97545.50
2018-09-06T11:07:37.107Z,97551.91
2018-09-06T11:10:06.019Z,97548.70
2018-09-06T11:12:35.000Z,97547.98
2018-09-06T11:15:03.727Z,97545.87
2018-09-06T11:17:32.750Z,97542.78
2018-09-06T11:20:01.570Z,97536.80
2018-09-06T11:22:30.461Z,97534.03
2018-09-06T11:24:59.200Z,97537.17
2018-09-06T11:27:28.499Z,97524.74
2018-09-06T11:29:57.038Z,97526.91
2018-09-06T11:32:25.967Z,97520.47
2018-09-06T11:34:55.355Z,97524.83
2018-09-06T11:37:24.065Z,97516.19
2018-09-06T11:39:52.928Z,97507.28
2018-09-06T11:42:21.596Z,97505.16
2018-09-06T11:44:50.727Z,97508.11
2018-09-06T11:47:19.487Z,97502.28
2018-09-06T11:49:48.285Z,97492.61
2018-09-06T11:52:17.094Z,97489.62
2018-09-06T11:54:45.869Z,97483.30
2018-09-06T11:57:15.086Z,97484.34
2018-09-06T11:59:43.983Z,97479.51
2018-09-06T12:02:12.693Z,97473.00
2018-09-06T12:04:41.610Z,97474.88
2018-09-06T12:07:10.313Z,97469.13
2018-09-06T12:09:40.879Z,97472.28
2018-09-06T12:12:09.631Z,97467.94
2018-09-06T12:14:38.303Z,97470.53
2018-09-06T12:17:07.181Z,97462.34
2018-09-06T12:19:36.029Z,97463.92
2018-09-06T12:22:04.829Z,97465.85
2018-09-06T12:24:33.614Z,97465.13
2018-09-06T12:27:02.336Z,97467.57
2018-09-06T12:29:31.394Z,97459.78
2018-09-06T12:32:00.482Z,97455.80
2018-09-06T12:34:29.475Z,97443.32
2018-09-06T12:36:58.175Z,97450.81
2018-09-06T12:39:26.976Z,97441.77
2018-09-06T12:41:55.793Z,97443.36
2018-09-06T12:44:24.658Z,97444.77
2018-09-06T12:46:53.628Z,97436.94
2018-09-06T12:49:22.737Z,97436.79
2018-09-06T12:51:51.478Z,97436.42
2018-09-06T12:54:20.184Z,97429.35
2018-09-06T12:56:48.863Z,97421.74
2018-09-06T12:59:17.638Z,97411.34
2018-09-06T13:01:46.412Z,97410.27
2018-09-06T13:04:15.121Z,97413.34
2018-09-06T13:06:43.844Z,97414.52
2018-09-06T13:09:12.586Z,97406.81
2018-09-06T13:11:41.317Z,97404.81
2018-09-06T13:14:10.193Z,97414.41
2018-09-06T13:16:39.795Z,97412.18
2018-09-06T13:19:08.607Z,97408.69
2018-09-06T13:21:37.282Z,97403.30
2018-09-06T13:24:06.365Z,97398.43
2018-09-06T13:26:35.082Z,97391.47
2018-09-06T13:29:03.857Z,97390.74
2018-09-06T13:31:32.693Z,97384.26
2018-09-06T13:34:01.450Z,97386.67
2018-09-06T13:36:30.245Z,97379.37
2018-09-06T13:38:58.889Z,97384.69
2018-09-06T13:41:27.685Z,97380.07
2018-09-06T13:43:56.359Z,97377.97
2018-09-06T13:46:25.034Z,97374.50
2018-09-06T13:48:53.987Z,97376.69
2018-09-06T13:51:22.898Z,97377.43
2018-09-06T13:53:51.630Z,97374.70
2018-09-06T13:56:20.373Z,97368.47
2018-09-06T13:58:49.133Z,97370.20
2018-09-06T14:01:18.030Z,97365.38
2018-09-06T14:03:46.793Z,97361.27
2018-09-06T14:06:15.619Z,97356.36
2018-09-06T14:08:44.461Z,97359.23
2018-09-06T14:11:13.144Z,97364.26
2018-09-06T14:13:42.069Z,97360.03
2018-09-06T14:16:10.851Z,97357.73
2018-09-06T14:18:39.546Z,97361.06
2018-09-06T14:21:08.313Z,97354.70
2018-09-06T14:23:36.983Z,97355.89
2018-09-06T14:26:05.720Z,97350.66
2018-09-06T14:28:34.641Z,97350.88
2018-09-06T14:31:03.490Z,97353.06
2018-09-06T14:33:32.202Z,97351.92
2018-09-06T14:36:00.862Z,97349.58
2018-09-06T14:38:29.641Z,97350.03
2018-09-06T14:40:58.430Z,97338.47
2018-09-06T14:43:27.428Z,97340.17
2018-09-06T14:45:56.100Z,97343.72
2018-09-06T14:48:24.842Z,97341.47
2018-09-06T14:50:53.592Z,97336.27
2018-09-06T14:53:22.361Z,97335.94
2018-09-06T14:55:51.269Z,97327.31
2018-09-06T14:58:19.961Z,97332.14
2018-09-06T15:00:48.848Z,97332.14
2018-09-06T15:03:17.624Z,97327.75
2018-09-06T15:05:46.284Z,97323.63
2018-09-06T15:08:14.997Z,97326.29
2018-09-06T15:10:43.732Z,97319.62
2018-09-06T15:13:12.462Z,97325.00
2018-09-06T15:15:41.279Z,97318.52
2018-09-06T15:18:10.035Z,97313.64
2018-09-06T15:20:38.802Z,97311.84
2018-09-06T15:23:07.531Z,97306.14
2018-09-06T15:25:36.311Z,97300.61
2018-09-06T15:28:04.991Z,97298.69
2018-09-06T15:30:33.762Z,97295.69
2018-09-06T15:33:02.613Z,97294.09
2018-09-06T15:35:31.333Z,97293.34
2018-09-06T15:38:00.782Z,97294.81
2018-09-06T15:40:29.730Z,97296.46
2018-09-06T15:42:58.523Z,97293.99
2018-09-06T15:45:27.382Z,97291.86
2018-09-06T15:47:56.358Z,97293.00
2018-09-06T15:50:25.114Z,97291.49
2018-09-06T15:52:54.021Z,97285.61
2018-09-06T15:55:22.778Z,97288.20
2018-09-06T15:57:51.466Z,97289.80
2018-09-06T16:00:20.391Z,97282.87
2018-09-06T16:02:49.110Z,97282.24
2018-09-06T16:05:17.979Z,97278.80
2018-09-06T16:07:46.666Z,97276.94
2018-09-06T16:10:15.419Z,97270.61
2018-09-06T16:12:44.135Z,97270.81
2018-09-06T16:15:13.037Z,97279.70
2018-09-06T16:17:41.756Z,97273.66
2018-09-06T16:20:10.465Z,97276.30
2018-09-06T16:22:39.480Z,97274.74
2018-09-06T16:25:08.182Z,97271.58
2018-09-06T16:27:36.952Z,97279.19
2018-09-06T16:30:06.244Z,97267.47
2018-09-06T16:32:34.969Z,97274.47
2018-09-06T16:35:03.664Z,97272.23
2018-09-06T16:37:32.365Z,97267.02
2018-09-06T16:40:01.149Z,97266.34
2018-09-06T16:42:29.831Z,97266.59
2018-09-06T16:44:58.866Z,97267.22
2018-09-06T16:47:27.560Z,97274.95
2018-09-06T16:49:56.215Z,97271.94
2018-09-06T16:52:24.945Z,97268.81
2018-09-06T16:54:53.918Z,97270.66
2018-09-06T16:57:22.672Z,97270.92
2018-09-06T16:59:51.453Z,97268.81
2018-09-06T17:02:20.295Z,97275.92
2018-09-06T17:04:49.054Z,97267.67
2018-09-06T17:07:17.831Z,97268.49
2018-09-06T17:09:46.627Z,97259.67
2018-09-06T17:12:15.262Z,97263.02
2018-09-06T17:14:43.946Z,97268.00
2018-09-06T17:17:12.584Z,97264.87
2018-09-06T17:19:41.345Z,97265.31
2018-09-06T17:22:10.405Z,97261.59
2018-09-06T17:24:39.127Z,97264.77
2018-09-06T17:27:07.890Z,97267.33
2018-09-06T17:29:36.575Z,97264.79
2018-09-06T17:32:05.270Z,97266.19
2018-09-06T17:34:33.913Z,97277.00
2018-09-06T17:37:02.643Z,97281.36
2018-09-06T17:39:31.388Z,97272.31
2018-09-06T17:42:00.117Z,97277.65
2018-09-06T17:44:28.813Z,97268.62
2018-09-06T17:46:57.511Z,97278.27
2018-09-06T17:49:26.250Z,97282.97
2018-09-06T17:51:54.956Z,97280.04
2018-09-06T17:54:23.624Z,97286.53
2018-09-06T17:56:52.468Z,97287.90
2018-09-06T17:59:21.222Z,97288.27
2018-09-06T18:01:50.074Z,97296.30
2018-09-06T18:04:18.789Z,97300.44
2018-09-06T18:06:47.557Z,97300.61
2018-09-06T18:11:58.308Z,97304.14
2018-09-06T18:14:27.173Z,97305.30
2018-09-06T18:16:56.184Z,97308.86
2018-09-06T18:19:24.903Z,97309.23
2018-09-06T18:21:53.633Z,97309.59
2018-09-06T18:24:22.452Z,97321.18
2018-09-06T18:26:51.258Z,97320.77
2018-09-06T18:29:20.018Z,97322.11
2018-09-06T18:31:48.807Z,97322.91
2018-09-06T18:34:17.558Z,97332.29
2018-09-06T18:36:46.391Z,97332.48
2018-09-06T18:39:15.198Z,97337.78
2018-09-06T18:41:43.941Z,97336.80
2018-09-06T18:44:12.710Z,97342.49
2018-09-06T18:46:41.416Z,97339.52
2018-09-06T18:49:10.237Z,97339.75
2018-09-06T18:51:39.028Z,97341.12
2018-09-06T18:54:07.734Z,97340.89
2018-09-06T18:56:36.515Z,97345.41
2018-09-06T18:59:05.567Z,97341.02
2018-09-06T19:01:34.586Z,97333.19
2018-09-06T19:04:03.259Z,97336.13
2018-09-06T19:06:31.928Z,97337.66
2018-09-06T19:09:00.738Z,97333.11
2018-09-06T19:11:29.369Z,97334.84
2018-09-06T19:13:58.234Z,97332.06
2018-09-06T19:16:26.950Z,97335.20
2018-09-06T19:18:55.875Z,97337.34
2018-09-06T19:21:24.579Z,97320.69
2018-09-06T19:23:53.561Z,97328.72
2018-09-06T19:26:22.556Z,97335.94
2018-09-06T19:28:51.196Z,97325.74
2018-09-06T19:31:19.938Z,97326.92
2018-09-06T19:33:48.737Z,97328.25
2018-09-06T19:36:17.507Z,97338.00
2018-09-06T19:38:46.326Z,97333.09
2018-09-06T19:41:15.043Z,97330.55
2018-09-06T19:43:43.715Z,97329.72
2018-09-06T19:46:12.433Z,97335.01
2018-09-06T19:48:41.252Z,97333.05
2018-09-06T19:51:10.262Z,97335.59
2018-09-06T19:53:39.118Z,97329.47
2018-09-06T19:56:07.900Z,97335.30
2018-09-06T19:58:36.621Z,97339.70
2018-09-06T20:01:05.390Z,97340.98
2018-09-06T20:03:35.139Z,97333.53
2018-09-06T20:06:03.907Z,97342.16
2018-09-06T20:08:32.693Z,97348.71
2018-09-06T20:11:01.590Z,97348.80
2018-09-06T20:13:30.264Z,97352.72
2018-09-06T20:15:59.695Z,97356.44
2018-09-06T20:18:28.551Z,97352.95
2018-09-06T20:20:57.261Z,97348.61
2018-09-06T20:23:26.086Z,97356.80
2018-09-06T20:25:54.996Z,97363.26
2018-09-06T20:28:23.898Z,97363.02
2018-09-06T20:30:52.625Z,97364.75
2018-09-06T20:33:21.379Z,97370.41
2018-09-06T20:35:50.315Z,97369.14
2018-09-06T20:38:19.003Z,97371.10
2018-09-06T20:40:47.895Z,97376.78
2018-09-06T20:43:16.667Z,97375.09
2018-09-06T20:45:45.571Z,97384.49
2018-09-06T20:48:15.318Z,97389.77
2018-09-06T20:50:44.028Z,97387.62
2018-09-06T20:53:13.125Z,97386.67
2018-09-06T20:55:41.822Z,97389.88
2018-09-06T20:58:10.525Z,97392.83
2018-09-06T21:00:39.337Z,97391.59
2018-09-06T21:03:08.149Z,97391.79
2018-09-06T21:05:36.880Z,97387.86
2018-09-06T21:08:05.590Z,97396.25
2018-09-06T21:10:34.365Z,97398.23
2018-09-06T21:13:03.165Z,97396.92
2018-09-06T21:15:32.077Z,97393.05
2018-09-06T21:18:00.984Z,97403.42
2018-09-06T21:20:29.714Z,97397.62
2018-09-06T21:22:58.743Z,97406.69
2018-09-06T21:25:27.454Z,97403.45
2018-09-06T21:27:56.542Z,97408.52
2018-09-06T21:30:25.321Z,97411.64
2018-09-06T21:32:54.024Z,97406.59
2018-09-06T21:35:22.754Z,97405.87
2018-09-06T21:37:51.600Z,97410.29
2018-09-06T21:40:20.397Z,97420.75
2018-09-06T21:42:49.329Z,97419.27
2018-09-06T21:45:18.246Z,97432.75
2018-09-06T21:47:47.103Z,97423.88
2018-09-06T21:50:16.130Z,97421.69
2018-09-06T21:52:44.867Z,97421.22
2018-09-06T21:55:13.574Z,97424.70
2018-09-06T21:57:42.355Z,97429.36
2018-09-06T22:00:11.417Z,97434.77
2018-09-06T22:02:45.724Z,97443.17
2018-09-06T22:05:14.473Z,97445.18
2018-09-06T22:07:43.224Z,97442.86
2018-09-06T22:10:12.792Z,97444.22
2018-09-06T22:12:41.655Z,97440.63
2018-09-06T22:15:10.468Z,97433.49
2018-09-06T22:17:39.234Z,97431.59
2018-09-06T22:20:07.985Z,97442.22
2018-09-06T22:22:36.714Z,97440.42
2018-09-06T22:25:05.607Z,97432.33
2018-09-06T22:27:34.313Z,97428.12
2018-09-06T22:30:03.299Z,97435.73
2018-09-06T22:32:32.186Z,97431.64
2018-09-06T22:35:00.962Z,97438.75
2018-09-06T22:37:29.738Z,97431.39
2018-09-06T22:39:58.557Z,97430.19
2018-09-06T22:42:27.229Z,97425.89
2018-09-06T22:44:55.884Z,97429.08
2018-09-06T22:47:24.731Z,97423.78
2018-09-06T22:49:53.502Z,97428.45
2018-09-06T22:52:22.488Z,97422.88
2018-09-06T22:54:51.146Z,97426.97
2018-09-06T22:57:19.954Z,97436.14
2018-09-06T22:59:48.666Z,97442.68
2018-09-06T23:02:17.776Z,97444.33
2018-09-06T23:04:46.634Z,97440.84
2018-09-06T23:07:15.475Z,97442.26
2018-09-06T23:09:44.202Z,97430.73
2018-09-06T23:12:13.028Z,97429.23
2018-09-06T23:14:41.730Z,97428.16
2018-09-06T23:17:10.464Z,97431.41
2018-09-06T23:19:39.289Z,97439.58
2018-09-06T23:22:08.043Z,97443.66
2018-09-06T23:24:37.075Z,97439.84
2018-09-06T23:27:05.918Z,97441.37
2018-09-06T23:29:34.616Z,97448.70
2018-09-06T23:32:03.847Z,97448.37
2018-09-06T23:34:35.677Z,97445.43
2018-09-06T23:37:05.642Z,97442.13
2018-09-06T23:39:35.001Z,97437.19
2018-09-06T23:42:04.035Z,97438.95
2018-09-06T23:44:32.783Z,97448.13
2018-09-06T23:47:01.736Z,97449.66
2018-09-06T23:49:31.160Z,97454.41
2018-09-06T23:52:00.324Z,97447.22
2018-09-06T23:54:30.122Z,97440.33
2018-09-06T23:56:58.809Z,97445.64
2018-09-06T23:59:27.584Z,97437.81
